Time;durP1;ratioP1;P1;durP2;ratioP2;P2;SDS_P1;SDS_P2;PMS_P1;PMS_P2;Temp;Humidity;BMP_temperature;BMP_pressure;BME280_temperature;BME280_humidity;BME280_pressure;Samples;Min_cycle;Max_cycle;Signal;HPM_P1;HPM_P2
2022/11/04 00:01:58;;;;;;;8.82;5.25;;;;;;;9.97;100.00;99827.44;5094557;28;20107;-80
2022/11/04 00:04:25;;;;;;;8.93;5.40;;;;;;;10.01;100.00;99844.41;5099177;28;20054;-80
2022/11/04 00:06:52;;;;;;;7.40;5.25;;;;;;;9.96;100.00;99846.72;5105981;28;20043;-78
2022/11/04 00:09:20;;;;;;;9.15;5.50;;;;;;;9.98;100.00;99856.50;5086745;28;20040;-78
2022/11/04 00:14:30;;;;;;;8.50;5.43;;;;;;;9.95;100.00;99862.25;5105673;28;20036;-79
2022/11/04 00:33:50;;;;;;;8.52;5.80;;;;;;;9.85;100.00;99883.25;5067462;28;20105;-79
2022/11/04 00:36:17;;;;;;;9.63;6.85;;;;;;;9.74;100.00;99886.97;5103906;28;20103;-79
2022/11/04 00:38:43;;;;;;;9.65;6.55;;;;;;;9.64;100.00;99886.94;5106436;28;20054;-79
2022/11/04 00:41:26;;;;;;;10.10;6.40;;;;;;;9.63;100.00;99898.88;5083007;28;20028;-79
2022/11/04 00:44:00;;;;;;;10.43;6.32;;;;;;;9.57;100.00;99893.97;5088685;28;20027;-79
2022/11/04 00:46:27;;;;;;;11.90;8.02;;;;;;;9.58;100.00;99901.16;5105704;28;20031;-79
2022/11/04 00:48:54;;;;;;;9.02;7.25;;;;;;;9.60;100.00;99890.94;5107538;28;20035;-79
2022/11/04 00:51:23;;;;;;;12.57;7.85;;;;;;;9.46;100.00;99886.75;5090898;28;20039;-79
2022/11/04 00:53:49;;;;;;;13.20;8.23;;;;;;;9.53;100.00;99900.72;5108109;28;20036;-79
2022/11/04 00:56:14;;;;;;;11.95;7.30;;;;;;;9.44;100.00;99894.19;5107014;28;20038;-79
2022/11/04 00:58:40;;;;;;;8.32;7.35;;;;;;;9.38;100.00;99895.63;5088038;28;20074;-79
2022/11/04 01:01:16;;;;;;;13.43;8.10;;;;;;;9.42;100.00;99900.81;5073499;28;20046;-79
2022/11/04 01:03:42;;;;;;;14.77;8.50;;;;;;;9.38;100.00;99903.81;5108463;28;20173;-80
2022/11/04 01:06:07;;;;;;;14.65;8.63;;;;;;;9.31;100.00;99899.94;5067832;28;20119;-79
2022/11/04 01:08:33;;;;;;;11.82;8.40;;;;;;;9.31;100.00;99899.94;5070310;28;20036;-79
2022/11/04 01:11:04;;;;;;;12.38;8.80;;;;;;;9.29;100.00;99899.19;5087148;28;20059;-80
2022/11/04 01:13:31;;;;;;;14.68;8.90;;;;;;;9.27;100.00;99893.00;5100402;28;20038;-78
2022/11/04 01:15:59;;;;;;;12.82;9.00;;;;;;;9.26;100.00;99909.50;5088389;28;20040;-78
2022/11/04 01:18:25;;;;;;;13.88;8.88;;;;;;;9.21;100.00;99904.47;5106040;28;20125;-79
2022/11/04 01:20:50;;;;;;;15.93;8.52;;;;;;;9.21;100.00;99907.19;5099463;28;20037;-79
2022/11/04 01:23:16;;;;;;;13.65;8.75;;;;;;;9.23;100.00;99915.25;5080679;28;20057;-79
2022/11/04 01:25:46;;;;;;;18.58;8.65;;;;;;;9.23;100.00;99920.72;5078035;28;20147;-79
2022/11/04 01:28:15;;;;;;;15.95;8.15;;;;;;;9.24;100.00;99917.00;5068462;28;20046;-80
2022/11/04 01:30:42;;;;;;;11.48;7.15;;;;;;;9.31;100.00;99915.44;5085865;28;20092;-79
2022/11/04 01:33:07;;;;;;;13.80;7.35;;;;;;;9.36;100.00;99921.34;5067909;28;20055;-79
2022/11/04 01:35:33;;;;;;;12.02;7.28;;;;;;;9.40;100.00;99922.81;5083971;28;20041;-79
2022/11/04 01:37:59;;;;;;;14.57;7.60;;;;;;;9.45;100.00;99925.13;5077345;28;20059;-79
2022/11/04 01:40:24;;;;;;;18.80;7.43;;;;;;;9.45;100.00;99938.81;5069602;28;20037;-80
2022/11/04 01:42:50;;;;;;;12.20;8.00;;;;;;;9.38;100.00;99931.16;5090310;28;20461;-81
2022/11/04 01:45:19;;;;;;;18.23;8.98;;;;;;;9.37;100.00;99937.59;5090717;28;20111;-79
2022/11/04 01:47:54;;;;;;;14.88;8.57;;;;;;;9.31;100.00;99931.81;5072210;28;20024;-79
2022/11/04 01:50:24;;;;;;;16.67;8.27;;;;;;;9.28;100.00;99927.50;5091224;28;20036;-78
2022/11/04 01:52:56;;;;;;;14.63;7.25;;;;;;;9.23;100.00;99926.16;5073441;28;20029;-78
2022/11/04 01:55:42;;;;;;;12.98;7.65;;;;;;;9.14;100.00;99919.66;5090634;28;20062;-80
2022/11/04 01:58:16;;;;;;;16.42;7.25;;;;;;;9.11;100.00;99917.19;5064106;28;20033;-80
2022/11/04 02:00:42;;;;;;;10.18;6.78;;;;;;;9.09;100.00;99931.00;5085069;28;20119;-79
2022/11/04 02:03:21;;;;;;;14.25;5.80;;;;;;;9.00;100.00;99921.75;5077793;28;20378;-79
2022/11/04 02:05:47;;;;;;;11.25;5.95;;;;;;;9.04;100.00;99935.13;5072687;28;20033;-79
2022/11/04 02:08:15;;;;;;;11.30;5.90;;;;;;;9.04;100.00;99936.00;5071249;28;20552;-80
2022/11/04 02:10:49;;;;;;;9.95;5.00;;;;;;;8.94;100.00;99925.00;5088052;28;20039;-79
2022/11/04 02:13:15;;;;;;;9.57;5.13;;;;;;;8.95;100.00;99943.13;5088608;28;20046;-80
2022/11/04 02:16:02;;;;;;;10.13;4.28;;;;;;;8.94;100.00;99941.41;5071834;28;20531;-79
2022/11/04 02:18:46;;;;;;;7.25;3.95;;;;;;;8.90;100.00;99947.25;5073449;28;20032;-80
2022/11/04 02:21:11;;;;;;;11.77;4.10;;;;;;;8.88;100.00;99943.78;5102815;28;20042;-80
2022/11/04 02:23:53;;;;;;;7.70;4.18;;;;;;;8.88;100.00;99950.09;5092303;28;20483;-79
2022/11/04 02:26:40;;;;;;;5.68;3.75;;;;;;;8.86;100.00;99949.38;5094175;28;20087;-80
2022/11/04 02:29:24;;;;;;;6.05;3.03;;;;;;;8.83;100.00;99947.78;5078169;28;20056;-81
2022/11/04 02:31:55;;;;;;;5.30;3.05;;;;;;;8.79;100.00;99953.66;5093818;28;20091;-80
2022/11/04 02:34:26;;;;;;;6.65;3.25;;;;;;;8.78;100.00;99954.66;5091117;28;20028;-79
2022/11/04 02:37:25;;;;;;;6.93;3.13;;;;;;;8.72;100.00;99961.47;5106867;28;20036;-80
2022/11/04 02:40:30;;;;;;;5.78;3.22;;;;;;;8.71;100.00;99961.63;5106377;28;20032;-80
2022/11/04 02:43:06;;;;;;;7.70;3.22;;;;;;;8.64;100.00;99956.69;5094303;28;20032;-80
2022/11/04 02:45:41;;;;;;;10.93;2.83;;;;;;;8.54;100.00;99960.34;5111809;28;20043;-79
2022/11/04 02:48:24;;;;;;;6.53;3.22;;;;;;;8.48;100.00;99972.66;5094719;28;20039;-79
2022/11/04 02:51:02;;;;;;;11.43;3.25;;;;;;;8.45;100.00;99967.44;5093206;28;20028;-81
2022/11/04 02:53:50;;;;;;;7.78;3.00;;;;;;;8.42;100.00;99963.06;5074410;28;20172;-80
2022/11/04 02:56:21;;;;;;;8.15;2.60;;;;;;;8.41;100.00;99966.81;5100020;28;20057;-79
2022/11/04 02:58:53;;;;;;;5.55;2.75;;;;;;;8.39;100.00;99966.06;5090078;28;20024;-79
2022/11/04 03:01:31;;;;;;;7.93;2.72;;;;;;;8.37;100.00;99968.06;5093297;28;20054;-78
2022/11/04 03:04:26;;;;;;;9.40;2.55;;;;;;;8.35;100.00;99966.47;5109535;28;20035;-79
2022/11/04 03:06:53;;;;;;;7.05;2.85;;;;;;;8.33;100.00;99965.72;5107835;28;20036;-78
2022/11/04 03:09:21;;;;;;;15.48;2.58;;;;;;;8.21;100.00;99954.84;5079727;28;20048;-79
2022/11/04 03:11:52;;;;;;;8.10;2.40;;;;;;;8.25;100.00;99964.50;5078176;28;20036;-79
2022/11/04 03:14:25;;;;;;;14.10;3.10;;;;;;;8.25;100.00;99977.28;5105170;28;20035;-79
2022/11/04 03:16:55;;;;;;;8.05;2.80;;;;;;;8.20;100.00;99972.22;5115679;28;20036;-79
2022/11/04 03:19:39;;;;;;;13.75;3.40;;;;;;;8.20;100.00;99974.94;5094564;28;20024;-78
2022/11/04 03:22:15;;;;;;;7.20;2.80;;;;;;;8.16;100.00;99969.88;5114729;28;20066;-80
2022/11/04 03:24:44;;;;;;;12.57;4.25;;;;;;;8.12;100.00;99963.81;5095839;28;20047;-79
2022/11/04 03:27:26;;;;;;;8.35;2.70;;;;;;;8.14;100.00;99980.03;5109017;28;20024;-78
2022/11/04 03:30:04;;;;;;;8.40;2.78;;;;;;;8.19;100.00;99984.09;5113102;28;20023;-79
2022/11/04 03:32:36;;;;;;;10.40;2.72;;;;;;;8.12;100.00;99976.53;5132354;28;20031;-79
2022/11/04 03:35:02;;;;;;;8.18;2.55;;;;;;;8.03;100.00;99962.69;5097380;28;20390;-79
2022/11/04 03:37:28;;;;;;;12.73;3.05;;;;;;;8.11;100.00;99981.16;5093636;28;20042;-79
2022/11/04 03:39:54;;;;;;;8.05;2.53;;;;;;;8.12;100.00;99988.34;5074720;28;20055;-79
2022/11/04 03:42:22;;;;;;;14.65;2.33;;;;;;;8.20;100.00;99982.22;5111958;28;20065;-79
2022/11/04 03:44:57;;;;;;;8.93;2.58;;;;;;;8.26;100.00;99984.44;5103450;28;20040;-79
2022/11/04 03:47:28;;;;;;;13.18;3.00;;;;;;;8.25;100.00;99977.28;5112908;28;20083;-78
2022/11/04 03:50:00;;;;;;;7.75;2.75;;;;;;;8.37;100.00;99986.28;5110841;28;20039;-80
2022/11/04 03:52:26;;;;;;;12.48;2.63;;;;;;;8.34;100.00;99987.41;5108781;28;20039;-80
2022/11/04 03:54:52;;;;;;;13.43;2.80;;;;;;;8.38;100.00;99986.16;5072360;28;20035;-80
2022/11/04 03:57:55;;;;;;;10.18;2.40;;;;;;;8.35;100.00;99991.00;5081397;28;20032;-79
2022/11/04 04:00:23;;;;;;;11.35;2.92;;;;;;;8.31;100.00;99987.66;5106779;28;20042;-79
2022/11/04 04:03:06;;;;;;;6.82;2.63;;;;;;;8.31;100.00;99992.25;5107605;28;20039;-80
2022/11/04 04:05:43;;;;;;;11.85;2.60;;;;;;;8.31;100.00;99989.53;5108280;28;20036;-79
2022/11/04 04:08:40;;;;;;;16.05;2.47;;;;;;;8.28;100.00;99993.41;5107498;28;20027;-80
2022/11/04 04:11:16;;;;;;;4.88;2.22;;;;;;;8.25;100.00;99997.22;5095622;28;20045;-80
2022/11/04 04:13:49;;;;;;;8.73;3.08;;;;;;;8.18;100.00;99992.41;5083430;28;20038;-80
2022/11/04 04:16:33;;;;;;;10.00;2.72;;;;;;;8.15;100.00;99995.38;5106144;28;20126;-80
2022/11/04 04:19:12;;;;;;;12.65;2.58;;;;;;;8.09;100.00;99994.91;5109706;28;20032;-79
2022/11/04 04:21:47;;;;;;;12.27;3.03;;;;;;;8.04;100.00;99988.09;5127561;28;20360;-79
2022/11/04 04:29:49;;;;;;;14.82;3.00;;;;;;;7.99;100.00;100001.25;5125235;28;20031;-80
2022/11/04 04:32:15;;;;;;;11.02;3.20;;;;;;;8.03;100.00;100000.84;5111229;28;20130;-79
2022/11/04 04:34:40;;;;;;;13.57;2.78;;;;;;;8.00;100.00;100006.59;5106826;28;20456;-79
2022/11/04 04:37:20;;;;;;;11.55;2.75;;;;;;;8.00;100.00;99998.41;5122751;28;20036;-79
2022/11/04 04:44:58;;;;;;;20.35;3.22;;;;;;;7.94;100.00;100008.94;5108783;28;20053;-79
2022/11/04 04:45:49;;;;;;;12.02;2.80;;;;;;;7.85;100.00;100010.56;5089812;28;20040;-80
2022/11/04 04:48:15;;;;;;;18.02;3.00;;;;;;;7.80;100.00;100012.78;5081115;28;20027;-78
2022/11/04 04:50:47;;;;;;;4.85;2.08;;;;;;;7.77;100.00;100013.03;5108577;28;20494;-79
2022/11/04 04:53:12;;;;;;;12.40;3.15;;;;;;;7.78;100.00;100010.19;5085500;28;20057;-79
2022/11/04 04:55:38;;;;;;;15.27;3.42;;;;;;;7.68;100.00;100017.38;5086493;28;20130;-80
2022/11/04 04:58:04;;;;;;;14.77;3.08;;;;;;;7.64;100.00;100004.97;5073319;28;20039;-79
2022/11/04 05:00:29;;;;;;;13.80;3.55;;;;;;;7.65;100.00;100017.63;5109585;28;20092;-80
2022/11/04 05:02:55;;;;;;;11.85;3.20;;;;;;;7.65;100.00;100015.75;5125412;28;20038;-80
2022/11/04 05:05:20;;;;;;;12.77;3.20;;;;;;;7.66;100.00;100022.09;5103312;28;20039;-80
2022/11/04 05:07:46;;;;;;;14.00;3.45;;;;;;;7.62;100.00;100021.44;5104711;28;20107;-79
2022/11/04 05:10:13;;;;;;;11.95;3.60;;;;;;;7.57;100.00;100025.53;5122240;28;20078;-78
2022/11/04 05:15:25;;;;;;;13.75;3.60;;;;;;;7.52;100.00;100024.03;5112213;28;20039;-78
2022/11/04 05:17:59;;;;;;;12.82;3.67;;;;;;;7.49;100.00;100029.75;5087761;28;20040;-79
2022/11/04 05:20:25;;;;;;;13.77;3.40;;;;;;;7.46;100.00;100021.84;5093413;28;20039;-79
2022/11/04 05:22:51;;;;;;;8.63;3.33;;;;;;;7.38;100.00;100034.31;5090582;28;20051;-78
2022/11/04 05:25:16;;;;;;;19.58;4.25;;;;;;;7.29;100.00;100031.31;5108842;28;20041;-79
2022/11/04 05:27:42;;;;;;;13.40;3.70;;;;;;;7.28;100.00;100032.31;5118388;28;20028;-79
2022/11/04 05:30:08;;;;;;;17.85;4.38;;;;;;;7.27;100.00;100037.88;5056074;28;20036;-79
2022/11/04 05:32:33;;;;;;;10.93;4.10;;;;;;;7.28;100.00;100037.78;5102444;28;20085;-79
2022/11/04 05:34:59;;;;;;;10.82;3.78;;;;;;;7.19;100.00;100043.94;5092877;28;20036;-81
2022/11/04 05:37:25;;;;;;;8.63;3.78;;;;;;;7.25;100.00;100043.44;5124129;28;20028;-80
2022/11/04 05:39:51;;;;;;;12.55;3.75;;;;;;;7.20;100.00;100045.66;5111345;28;20057;-80
2022/11/04 05:42:16;;;;;;;15.05;3.40;;;;;;;7.17;100.00;100064.97;5097404;28;20067;-81
2022/11/04 05:44:42;;;;;;;11.60;3.47;;;;;;;7.27;100.00;100063.25;5109924;28;20050;-80
2022/11/04 05:47:07;;;;;;;17.20;3.80;;;;;;;7.20;100.00;100066.56;5083589;28;21745;-80
2022/11/04 05:49:34;;;;;;;16.63;4.25;;;;;;;7.16;100.00;100060.50;5092138;28;20035;-81
2022/11/04 05:52:01;;;;;;;12.25;4.70;;;;;;;7.27;100.00;100060.53;5087054;28;20032;-80
2022/11/04 05:54:26;;;;;;;14.43;4.32;;;;;;;7.24;100.00;100065.34;5105796;28;20111;-80
2022/11/04 05:56:52;;;;;;;13.88;3.88;;;;;;;7.29;100.00;100066.72;5101780;28;20126;-78
2022/11/04 05:59:17;;;;;;;9.95;4.03;;;;;;;7.35;100.00;100068.97;5088000;28;20487;-78
2022/11/04 06:01:44;;;;;;;15.75;4.07;;;;;;;7.32;100.00;100073.78;5102327;28;20036;-79
2022/11/04 06:04:14;;;;;;;20.10;4.57;;;;;;;7.34;100.00;100082.69;5084313;28;20395;-78
2022/11/04 06:06:41;;;;;;;15.52;4.43;;;;;;;7.43;100.00;100078.38;5097119;28;20043;-80
2022/11/04 06:09:06;;;;;;;13.13;4.07;;;;;;;7.45;100.00;100084.59;5117051;28;20032;-79
2022/11/04 06:11:33;;;;;;;14.32;4.65;;;;;;;7.45;100.00;100077.28;5089638;28;20061;-77
2022/11/04 06:14:02;;;;;;;9.75;3.85;;;;;;;7.47;100.00;100079.88;5121002;28;20028;-78
2022/11/04 06:16:28;;;;;;;17.52;5.07;;;;;;;7.60;100.00;100079.78;5077675;28;20145;-79
2022/11/04 06:18:53;;;;;;;11.63;4.57;;;;;;;7.59;100.00;100075.31;5088642;28;20085;-80
2022/11/04 06:21:26;;;;;;;14.27;4.85;;;;;;;7.69;100.00;100079.03;5069690;28;20028;-78
2022/11/04 06:23:55;;;;;;;12.73;5.80;;;;;;;7.70;100.00;100078.91;5103756;28;20132;-79
2022/11/04 06:26:21;;;;;;;20.63;4.80;;;;;;;7.63;100.00;100074.09;5085786;28;20023;-79
2022/11/04 06:28:46;;;;;;;13.27;4.40;;;;;;;7.76;100.00;100076.72;5093632;28;20077;-80
2022/11/04 06:31:13;;;;;;;28.48;4.70;;;;;;;7.80;100.00;100087.22;5066349;28;20096;-79
2022/11/04 06:33:39;;;;;;;9.70;3.58;;;;;;;7.73;100.00;100075.94;5069569;28;20030;-79
2022/11/04 06:36:06;;;;;;;15.75;4.13;;;;;;;7.83;100.00;100092.44;5102866;28;20067;-79
2022/11/04 06:38:35;;;;;;;15.25;3.65;;;;;;;7.89;100.00;100097.41;5101940;28;20034;-79
2022/11/04 06:41:00;;;;;;;13.65;3.72;;;;;;;7.94;100.00;100115.25;5096645;28;20028;-80
2022/11/04 06:43:26;;;;;;;12.02;3.45;;;;;;;7.83;100.00;100110.66;5097532;28;20031;-80
2022/11/04 06:45:59;;;;;;;10.57;3.92;;;;;;;7.82;100.00;100115.25;5070331;28;20040;-79
2022/11/04 06:48:25;;;;;;;15.73;3.97;;;;;;;7.78;100.00;100115.59;5122084;28;20032;-79
2022/11/04 06:50:51;;;;;;;9.30;3.45;;;;;;;7.77;100.00;100114.72;5096045;28;20043;-79
2022/11/04 06:53:16;;;;;;;9.50;4.07;;;;;;;7.75;100.00;100111.25;5122849;28;20054;-78
2022/11/04 06:55:42;;;;;;;8.38;3.85;;;;;;;7.80;100.00;100130.81;5100464;28;20478;-80
2022/11/04 06:58:08;;;;;;;7.95;4.13;;;;;;;7.79;100.00;100134.56;5085655;28;20057;-78
2022/11/04 07:00:34;;;;;;;11.80;3.92;;;;;;;7.79;100.00;100134.56;5104461;28;20024;-78
2022/11/04 07:02:59;;;;;;;18.02;4.70;;;;;;;7.79;100.00;100140.00;5099033;28;20039;-79
2022/11/04 07:05:24;;;;;;;10.70;3.97;;;;;;;7.85;100.00;100139.50;5084033;28;20035;-79
2022/11/04 07:07:50;;;;;;;8.02;3.85;;;;;;;7.82;100.00;100130.69;5083309;28;20678;-78
2022/11/04 07:10:18;;;;;;;14.70;3.95;;;;;;;7.88;100.00;100136.53;5095312;28;20020;-78
2022/11/04 07:12:44;;;;;;;11.05;3.88;;;;;;;7.94;100.00;100140.66;5101314;28;20055;-78
2022/11/04 07:15:09;;;;;;;11.40;4.05;;;;;;;7.98;100.00;100143.97;5122867;28;20030;-82
2022/11/04 07:17:36;;;;;;;14.18;4.15;;;;;;;8.07;100.00;100143.25;5081918;28;20040;-79
2022/11/04 07:20:04;;;;;;;10.77;4.25;;;;;;;8.07;100.00;100141.38;5100678;28;20023;-79
2022/11/04 07:22:29;;;;;;;15.13;4.27;;;;;;;8.11;100.00;100144.72;5069190;28;1123565;-80
2022/11/04 07:24:55;;;;;;;18.67;4.75;;;;;;;8.15;100.00;100148.97;5094299;28;20050;-78
2022/11/04 07:27:20;;;;;;;13.23;4.47;;;;;;;8.25;100.00;100157.28;5110391;28;20035;-78
2022/11/04 07:29:49;;;;;;;16.88;4.43;;;;;;;8.26;100.00;100159.88;5126308;28;20035;-81
2022/11/04 07:32:14;;;;;;;13.93;5.13;;;;;;;8.25;100.00;100154.53;5095943;28;20027;-79
2022/11/04 07:34:40;;;;;;;10.00;4.68;;;;;;;8.25;100.00;100157.28;5110700;28;20387;-78
2022/11/04 07:37:05;;;;;;;13.40;4.25;;;;;;;8.29;100.00;100159.59;5088029;28;20567;-78
2022/11/04 07:39:30;;;;;;;9.93;4.50;;;;;;;8.28;100.00;100165.22;5094207;28;20058;-80
2022/11/04 07:41:56;;;;;;;19.83;4.75;;;;;;;8.35;100.00;100163.72;5106429;28;20031;-79
2022/11/04 07:44:22;;;;;;;14.88;4.90;;;;;;;8.52;100.00;100165.09;5121515;28;20049;-78
2022/11/04 07:46:48;;;;;;;16.48;4.90;;;;;;;8.65;100.00;100160.34;5102577;28;20027;-79
2022/11/04 07:49:14;;;;;;;12.13;5.32;;;;;;;8.73;100.00;100162.44;5083637;28;20044;-79
2022/11/04 07:51:40;;;;;;;14.68;4.45;;;;;;;8.75;100.00;100165.06;5104939;28;20028;-79
2022/11/04 07:54:06;;;;;;;14.45;5.18;;;;;;;8.74;100.00;100175.13;5107998;28;20046;-79
2022/11/04 07:56:31;;;;;;;11.15;5.68;;;;;;;8.75;100.00;100154.13;5089559;28;20024;-78
2022/11/04 07:58:57;;;;;;;19.50;4.55;;;;;;;8.95;100.00;100174.31;5089913;28;20054;-79
2022/11/04 08:01:23;;;;;;;17.27;4.40;;;;;;;9.00;100.00;100185.72;5111785;28;20091;-78
2022/11/04 08:03:50;;;;;;;10.85;5.00;;;;;;;9.00;100.00;100186.59;5107164;28;20051;-78
2022/11/04 08:06:18;;;;;;;14.15;4.30;;;;;;;9.15;100.00;100194.47;5071921;28;20028;-77
2022/11/04 08:08:44;;;;;;;12.40;4.25;;;;;;;9.14;100.00;100181.84;5109747;28;20115;-78
2022/11/04 08:11:16;;;;;;;13.25;3.95;;;;;;;9.22;100.00;100189.41;5093036;28;20092;-79
2022/11/04 08:13:42;;;;;;;13.40;3.78;;;;;;;9.27;100.00;100184.41;5127747;28;20061;-79
2022/11/04 08:16:12;;;;;;;11.20;3.60;;;;;;;9.29;100.00;100194.19;5127817;28;20075;-78
2022/11/04 08:18:40;;;;;;;10.48;3.50;;;;;;;9.28;100.00;100188.84;5092892;28;20095;-79
2022/11/04 08:21:06;;;;;;;14.40;3.70;;;;;;;9.34;100.00;100189.19;5077205;28;20053;-80
2022/11/04 08:23:33;;;;;;;13.30;4.20;;;;;;;9.41;100.00;100196.88;5109733;28;20047;-78
2022/11/04 08:25:58;;;;;;;13.05;4.13;;;;;;;9.43;100.00;100192.16;5104953;28;20490;-78
2022/11/04 08:28:25;;;;;;;16.17;3.65;;;;;;;9.50;100.00;100201.56;5090774;28;20040;-79
2022/11/04 08:31:06;;;;;;;13.40;3.65;;;;;;;9.56;100.00;100204.66;5124106;28;20118;-79
2022/11/04 08:33:32;;;;;;;13.68;3.45;;;;;;;9.59;100.00;100208.13;5072117;28;20114;-79
2022/11/04 08:36:08;;;;;;;18.63;4.00;;;;;;;9.51;100.00;100206.03;5072405;28;20028;-78
2022/11/04 08:38:34;;;;;;;10.90;3.20;;;;;;;9.47;100.00;100213.63;5072399;28;20057;-79
2022/11/04 08:41:02;;;;;;;14.77;3.33;;;;;;;9.43;100.00;100216.75;5076904;28;20031;-78
2022/11/04 08:43:28;;;;;;;12.23;3.42;;;;;;;9.43;100.00;100230.41;5108755;28;20032;-79
2022/11/04 08:45:54;;;;;;;17.67;3.90;;;;;;;9.53;100.00;100234.97;5108837;28;20035;-80
2022/11/04 08:48:20;;;;;;;9.25;3.30;;;;;;;9.62;100.00;100237.91;5108154;28;20091;-78
2022/11/04 08:50:51;;;;;;;8.40;3.20;;;;;;;9.70;100.00;100238.13;5104851;28;20054;-79
2022/11/04 08:53:17;;;;;;;7.78;3.40;;;;;;;9.71;100.00;100240.72;5104815;28;20047;-78
2022/11/04 08:55:44;;;;;;;10.75;3.50;;;;;;;9.77;100.00;100241.19;5106101;28;20047;-80
2022/11/04 08:58:09;;;;;;;14.32;3.78;;;;;;;9.93;100.00;100247.94;5076835;28;20122;-80
2022/11/04 09:00:36;;;;;;;7.00;2.97;;;;;;;10.16;100.00;100253.28;5107724;28;20031;-78
2022/11/04 09:03:01;;;;;;;12.55;3.35;;;;;;;10.46;100.00;100246.16;5125553;28;20081;-79
2022/11/04 09:05:27;;;;;;;13.35;2.80;;;;;;;10.71;100.00;100250.31;5109399;28;20039;-79
2022/11/04 09:07:54;;;;;;;7.78;3.47;;;;;;;10.75;100.00;100249.03;5110063;28;20034;-78
2022/11/04 09:10:22;;;;;;;16.80;3.20;;;;;;;10.81;100.00;100262.19;5109350;28;20439;-78
2022/11/04 09:12:48;;;;;;;9.18;2.13;;;;;;;10.64;100.00;100262.81;5125417;28;20039;-78
2022/11/04 09:15:13;;;;;;;9.43;2.38;;;;;;;10.58;100.00;100271.59;5109194;28;20391;-78
2022/11/04 09:17:39;;;;;;;13.07;2.78;;;;;;;10.55;100.00;100280.06;5076467;28;20038;-79
2022/11/04 09:20:06;;;;;;;9.75;2.10;;;;;;;10.38;100.00;100281.53;5108547;28;20038;-79
2022/11/04 09:22:33;;;;;;;8.57;2.42;;;;;;;10.37;100.00;100277.94;5059257;28;20060;-78
2022/11/04 09:24:59;;;;;;;11.82;2.67;;;;;;;10.28;100.00;100278.69;5089113;28;20069;-80
2022/11/04 09:27:24;;;;;;;13.32;2.55;;;;;;;10.27;100.00;100282.47;5106632;28;20031;-79
2022/11/04 09:29:50;;;;;;;14.98;2.38;;;;;;;10.24;100.00;100285.47;5091055;28;20040;-80
2022/11/04 09:32:15;;;;;;;10.90;2.25;;;;;;;10.27;100.00;100283.31;5109497;28;20104;-78
2022/11/04 09:34:41;;;;;;;12.75;2.88;;;;;;;10.43;100.00;100293.84;5121612;28;20457;-78
2022/11/04 09:37:06;;;;;;;12.85;2.65;;;;;;;10.40;100.00;100302.31;5104633;28;20058;-79
2022/11/04 09:39:32;;;;;;;9.30;2.53;;;;;;;10.34;100.00;100297.34;5091772;28;20054;-80
2022/11/04 09:42:17;;;;;;;7.60;2.17;;;;;;;10.40;100.00;100298.72;5092524;28;20039;-79
2022/11/04 09:45:01;;;;;;;9.05;2.47;;;;;;;10.56;100.00;100299.09;5092396;28;20027;-81
2022/11/04 09:47:29;;;;;;;8.15;2.72;;;;;;;10.57;100.00;100297.22;5090976;28;20032;-79
2022/11/04 09:49:57;;;;;;;11.48;2.75;;;;;;;10.68;100.00;100309.97;5091160;28;20027;-79
2022/11/04 09:52:30;;;;;;;10.50;2.50;;;;;;;10.79;100.00;100310.75;5090750;28;20090;-79
2022/11/04 09:55:19;;;;;;;12.68;2.30;;;;;;;10.78;100.00;100317.22;5106458;28;20042;-80
2022/11/04 09:57:53;;;;;;;15.27;2.92;;;;;;;10.87;100.00;100314.66;5111330;28;20032;-79
2022/11/04 10:00:19;;;;;;;13.50;3.00;;;;;;;11.00;100.00;100316.19;5099896;28;20060;-78
2022/11/04 10:03:01;;;;;;;15.77;2.97;;;;;;;11.12;100.00;100318.81;5074554;28;20050;-80
2022/11/04 10:05:43;;;;;;;14.15;3.25;;;;;;;11.13;100.00;100306.84;5109273;28;20040;-79
2022/11/04 10:08:08;;;;;;;26.00;4.22;;;;;;;11.09;100.00;100316.34;5111112;28;20494;-79
2022/11/04 10:11:02;;;;;;;11.27;2.50;;;;;;;11.00;100.00;100320.78;5092837;28;20028;-79
2022/11/04 10:13:33;;;;;;;11.35;3.17;;;;;;;10.97;100.00;100335.63;5092983;28;20146;-79
2022/11/04 10:16:25;;;;;;;17.02;3.40;;;;;;;11.19;100.00;100328.22;5111161;28;20027;-78
2022/11/04 10:18:59;;;;;;;15.68;3.03;;;;;;;11.26;100.00;100342.22;5090468;28;20043;-78
2022/11/04 10:21:35;;;;;;;16.50;2.80;;;;;;;11.41;100.00;100340.81;5080745;28;20487;-77
2022/11/04 10:24:30;;;;;;;12.85;2.72;;;;;;;11.51;100.00;100349.06;5124660;28;20126;-79
2022/11/04 10:27:03;;;;;;;13.05;2.50;;;;;;;11.44;100.00;100346.03;5110038;28;20031;-79
2022/11/04 10:29:34;;;;;;;;;;;;;;;11.38;100.00;100341.97;5094093;28;20039;-78
2022/11/04 10:32:05;;;;;;;14.20;2.63;;;;;;;11.37;100.00;100336.63;5109888;28;20484;-78
2022/11/04 10:34:40;;;;;;;15.07;3.08;;;;;;;11.52;100.00;100343.44;5108662;28;20119;-79
2022/11/04 10:37:11;;;;;;;10.98;3.05;;;;;;;11.69;100.00;100338.28;5093086;28;20035;-79
2022/11/04 10:39:43;;;;;;;11.70;2.75;;;;;;;11.86;100.00;100331.25;5109238;28;20066;-78
2022/11/04 10:42:15;;;;;;;14.68;2.97;;;;;;;11.98;100.00;100334.75;5105779;28;20527;-78
2022/11/04 10:44:41;;;;;;;13.98;2.67;;;;;;;12.27;100.00;100341.09;5091526;28;20028;-78
2022/11/04 10:47:09;;;;;;;8.48;2.63;;;;;;;12.80;100.00;100338.84;5110720;28;20028;-80
2022/11/04 10:50:10;;;;;;;8.38;2.40;;;;;;;12.43;100.00;100332.28;5109697;28;20086;-79
2022/11/04 10:52:36;;;;;;;16.70;3.28;;;;;;;12.21;100.00;100335.34;5110788;28;20035;-79
2022/11/04 10:55:10;;;;;;;13.65;3.15;;;;;;;11.92;100.00;100331.59;5107891;28;20040;-78
2022/11/04 10:57:36;;;;;;;14.30;2.83;;;;;;;11.84;100.00;100336.00;5086528;28;20032;-80
2022/11/04 11:00:04;;;;;;;10.57;2.92;;;;;;;12.06;100.00;100341.25;5093817;28;20057;-78
2022/11/04 11:02:35;;;;;;;16.17;3.47;;;;;;;11.90;100.00;100350.03;5110094;28;20031;-79
2022/11/04 11:05:16;;;;;;;11.73;2.63;;;;;;;11.93;100.00;100358.00;5093274;28;20035;-78
2022/11/04 11:07:47;;;;;;;13.43;3.22;;;;;;;11.74;100.00;100357.94;5126514;28;20031;-77
2022/11/04 11:10:23;;;;;;;13.30;3.28;;;;;;;11.66;100.00;100360.50;5093878;28;20043;-79
2022/11/04 11:12:54;;;;;;;14.52;3.03;;;;;;;11.66;100.00;100363.25;5091665;28;20027;-79
2022/11/04 11:15:23;;;;;;;16.45;3.15;;;;;;;11.85;100.00;100362.44;5093016;28;20028;-78
2022/11/04 11:17:56;;;;;;;16.20;3.10;;;;;;;11.70;100.00;100354.59;5091752;28;20035;-79
2022/11/04 11:20:24;;;;;;;16.35;3.50;;;;;;;11.75;100.00;100349.56;5109389;28;20027;-79
2022/11/04 11:22:50;;;;;;;13.35;4.22;;;;;;;11.58;100.00;100353.84;5127617;28;20525;-80
2022/11/04 11:25:21;;;;;;;33.05;4.80;;;;;;;11.42;100.00;100356.28;5110070;28;20052;-78
2022/11/04 11:27:49;;;;;;;15.65;5.00;;;;;;;11.37;100.00;100364.03;5108280;28;20027;-79
2022/11/04 11:30:32;;;;;;;17.60;5.43;;;;;;;11.37;100.00;100364.03;5110294;28;20028;-78
2022/11/04 11:33:12;;;;;;;28.42;6.22;;;;;;;11.67;100.00;100362.25;5110061;28;20115;-78
2022/11/04 11:35:52;;;;;;;13.02;5.18;;;;;;;11.87;100.00;100366.78;5107515;28;20081;-78
2022/11/04 11:38:29;;;;;;;13.15;4.78;;;;;;;11.98;100.00;100370.44;5123743;28;20114;-79
2022/11/04 11:41:11;;;;;;;37.03;6.78;;;;;;;12.07;100.00;100366.84;5109382;28;20027;-79
2022/11/04 11:43:41;;;;;;;15.70;4.53;;;;;;;11.95;100.00;100372.44;5110053;28;20027;-79
2022/11/04 11:46:07;;;;;;;10.15;4.65;;;;;;;12.01;100.00;100371.00;5127994;28;20037;-79
2022/11/04 11:48:49;;;;;;;18.83;5.10;;;;;;;12.36;100.00;100375.03;5090091;28;20071;-79
2022/11/04 11:51:25;;;;;;;18.35;3.83;;;;;;;12.65;100.00;100383.25;5081856;28;20034;-79
2022/11/04 11:54:24;;;;;;;16.23;5.20;;;;;;;12.73;100.00;100381.69;5108457;28;20026;-78
2022/11/04 11:57:04;;;;;;;11.93;3.95;;;;;;;12.31;100.00;100377.38;5090130;28;20059;-79
2022/11/04 11:59:43;;;;;;;17.55;3.97;;;;;;;12.14;100.00;100395.44;5102549;28;20173;-79
2022/11/04 12:02:38;;;;;;;17.33;4.30;;;;;;;11.84;100.00;100390.84;5086998;28;20049;-79
2022/11/04 12:05:09;;;;;;;16.58;6.22;;;;;;;11.68;100.00;100397.75;5130672;28;20039;-79
2022/11/04 12:07:59;;;;;;;25.45;8.32;;;;;;;11.64;100.00;100401.81;5112800;28;20070;-78